Terminal Aerodrome Forecast
Issued by NWS Buffalo, NY

Home | Current Version | Previous Version | Text Only | Print | Product List | Glossary On
Versions: 1 2 3 4 5 6 7 8 9 10 11 12 13 14 15 16 17 18 19 20 21 22 23 24 25 26 27 28
000
FTUS41 KBUF 200900 AAA
TAFROC
TAF AMD
KROC 200901Z 2009/2106 18008KT P6SM SCT250 WS020/23040KT
     FM201100 19012KT P6SM FEW060 BKN250
     FM201400 20014G22KT P6SM SCT060 BKN250
     FM201700 21015G24KT P6SM FEW060 SCT200
     FM202300 19012G22KT P6SM SCT120
     FM210500 19013KT P6SM BKN035=

USA.gov is the U.S. government's official web portal to all federal, state and local government web resources and services.